createdAt,value
2023-03-06T00:00:14.912Z,0
2023-03-06T00:01:15.981Z,0
2023-03-06T00:02:16.964Z,0
2023-03-06T00:03:18.001Z,0
2023-03-06T00:04:18.963Z,0.14
2023-03-06T00:05:20.076Z,0
2023-03-06T00:06:21.002Z,0
2023-03-06T00:07:21.970Z,0
2023-03-06T00:08:22.964Z,0
2023-03-06T00:09:23.996Z,0
2023-03-06T00:10:24.931Z,0
2023-03-06T00:11:25.984Z,0
2023-03-06T00:12:27.025Z,0
2023-03-06T00:13:28.024Z,0
2023-03-06T00:14:28.966Z,0
2023-03-06T00:15:30.064Z,0
2023-03-06T00:16:30.978Z,0
2023-03-06T00:17:31.923Z,0
2023-03-06T00:18:32.936Z,0
2023-03-06T00:19:33.946Z,0
2023-03-06T00:20:34.943Z,0
2023-03-06T00:21:35.965Z,0
2023-03-06T00:22:37.005Z,0
2023-03-06T00:23:38.045Z,0
2023-03-06T00:24:38.969Z,0
2023-03-06T00:25:40.045Z,0
2023-03-06T00:26:40.991Z,0
2023-03-06T00:27:42.073Z,0
2023-03-06T00:28:43.078Z,0
2023-03-06T00:29:43.943Z,0
2023-03-06T00:30:45.011Z,0
2023-03-06T00:31:46.018Z,0
2023-03-06T00:32:47.110Z,0.08
2023-03-06T00:33:48.087Z,0
2023-03-06T00:34:48.983Z,0
2023-03-06T00:35:50.089Z,0
2023-03-06T00:36:51.003Z,0
2023-03-06T00:37:52.081Z,0
2023-03-06T00:38:52.974Z,0
2023-03-06T00:39:53.947Z,0.26
2023-03-06T00:40:54.966Z,0
2023-03-06T00:41:56.035Z,0
2023-03-06T00:42:57.000Z,0
2023-03-06T00:43:57.961Z,0
2023-03-06T00:44:59.003Z,0
2023-03-06T00:46:00.183Z,0
2023-03-06T00:47:00.939Z,0
2023-03-06T00:48:02.121Z,0
2023-03-06T00:49:02.961Z,0
2023-03-06T00:50:03.966Z,0
2023-03-06T00:51:05.032Z,0
2023-03-06T00:52:06.163Z,0
2023-03-06T00:53:06.959Z,0
2023-03-06T00:54:08.008Z,0
2023-03-06T00:55:08.940Z,0
2023-03-06T00:56:09.983Z,0
2023-03-06T00:57:11.042Z,0
2023-03-06T00:58:12.088Z,0
2023-03-06T00:59:12.925Z,0
2023-03-06T01:00:14.008Z,0
2023-03-06T01:01:15.136Z,0
2023-03-06T01:02:15.997Z,0
2023-03-06T01:03:16.981Z,0
2023-03-06T01:04:18.039Z,0
2023-03-06T01:05:18.963Z,0
2023-03-06T01:06:20.130Z,0
2023-03-06T01:07:20.976Z,0
2023-03-06T01:08:21.978Z,0
2023-03-06T01:09:23.117Z,0
2023-03-06T01:10:24.140Z,0
2023-03-06T01:11:25.178Z,0
2023-03-06T01:12:26.060Z,0
2023-03-06T01:13:27.022Z,0
2023-03-06T01:14:28.085Z,0
2023-03-06T01:15:28.978Z,0
2023-03-06T01:16:29.993Z,0
2023-03-06T01:17:30.986Z,0
2023-03-06T01:18:31.952Z,0
2023-03-06T01:19:33.025Z,0
2023-03-06T01:20:33.994Z,0
2023-03-06T01:21:35.000Z,0
2023-03-06T01:22:35.995Z,0
2023-03-06T01:23:36.975Z,0
2023-03-06T01:24:37.937Z,0
2023-03-06T01:25:39.010Z,0
2023-03-06T01:26:40.036Z,0
2023-03-06T01:27:40.976Z,0
2023-03-06T01:28:41.980Z,0
2023-03-06T01:29:42.994Z,0
2023-03-06T01:30:43.980Z,0.15
2023-03-06T01:31:45.091Z,0
2023-03-06T01:32:46.036Z,0.2
2023-03-06T01:33:47.003Z,0.08
2023-03-06T01:34:47.994Z,0
2023-03-06T01:35:49.054Z,0
2023-03-06T01:36:49.994Z,0
2023-03-06T01:37:51.060Z,0
2023-03-06T01:38:51.948Z,0
2023-03-06T01:39:53.000Z,0.12
2023-03-06T01:40:54.020Z,0
2023-03-06T01:41:55.027Z,0
2023-03-06T01:42:56.138Z,0
2023-03-06T01:43:57.140Z,0.34
2023-03-06T01:44:58.020Z,0.38
2023-03-06T01:45:58.989Z,0.05
2023-03-06T01:46:59.961Z,0
2023-03-06T01:48:00.919Z,0
2023-03-06T01:49:02.040Z,0.14
2023-03-06T01:50:03.000Z,0.11
2023-03-06T01:51:04.089Z,0.14
2023-03-06T01:52:05.024Z,0
2023-03-06T01:53:05.980Z,0.12
2023-03-06T01:54:07.101Z,0
2023-03-06T01:55:07.988Z,0
2023-03-06T01:56:09.048Z,0.22
2023-03-06T01:57:09.997Z,0
2023-03-06T01:58:10.999Z,0
2023-03-06T01:59:12.002Z,0
2023-03-06T02:00:13.079Z,0
2023-03-06T02:01:14.038Z,0
2023-03-06T02:02:15.091Z,0.06
2023-03-06T02:06:30.079Z,0
2023-03-06T02:07:31.039Z,0
2023-03-06T02:08:32.001Z,0
2023-03-06T02:09:32.917Z,0
2023-03-06T02:10:34.096Z,0
2023-03-06T02:11:35.114Z,0
2023-03-06T02:12:36.019Z,0
2023-03-06T02:13:36.978Z,0.44
2023-03-06T02:14:38.141Z,0
2023-03-06T02:15:39.278Z,0
2023-03-06T02:16:40.165Z,0
2023-03-06T02:17:40.965Z,0
2023-03-06T02:18:42.063Z,0
2023-03-06T02:19:43.060Z,0
2023-03-06T02:20:44.039Z,0
2023-03-06T02:21:45.077Z,0
2023-03-06T02:22:46.024Z,0
2023-03-06T02:23:47.058Z,0
2023-03-06T02:24:48.019Z,0
2023-03-06T02:25:49.020Z,0
2023-03-06T02:26:50.142Z,0
2023-03-06T02:27:51.052Z,0
2023-03-06T02:28:52.058Z,0
2023-03-06T02:29:53.126Z,0
2023-03-06T02:30:54.180Z,0
2023-03-06T02:31:55.020Z,0
2023-03-06T02:32:56.024Z,0.19
2023-03-06T02:33:57.018Z,0
2023-03-06T02:34:58.120Z,0.3
2023-03-06T02:35:59.056Z,0
2023-03-06T02:37:00.109Z,0
2023-03-06T02:38:01.014Z,0
2023-03-06T02:39:02.169Z,0
2023-03-06T02:40:03.200Z,0
2023-03-06T02:41:04.080Z,0.32
2023-03-06T02:42:05.124Z,0.22
2023-03-06T02:43:06.040Z,0
2023-03-06T02:44:07.039Z,0
2023-03-06T02:45:08.019Z,0
2023-03-06T02:46:09.146Z,0
2023-03-06T02:47:10.097Z,0
2023-03-06T02:48:11.096Z,0
2023-03-06T02:49:12.236Z,0
2023-03-06T02:50:13.154Z,0
2023-03-06T02:51:14.236Z,0
2023-03-06T02:53:38.194Z,0
2023-03-06T02:54:39.175Z,0
2023-03-06T02:55:40.074Z,0
2023-03-06T02:56:41.094Z,0
2023-03-06T02:57:42.080Z,0
2023-03-06T02:58:43.187Z,0
2023-03-06T02:59:44.232Z,0
2023-03-06T03:00:48.105Z,0
2023-03-06T03:01:49.090Z,0
2023-03-06T03:02:50.063Z,0
2023-03-06T03:03:51.132Z,0
2023-03-06T03:04:52.184Z,0
2023-03-06T03:05:53.056Z,0
2023-03-06T03:06:54.034Z,0
2023-03-06T03:07:55.095Z,0
2023-03-06T03:08:56.032Z,0
2023-03-06T03:09:56.974Z,0
2023-03-06T03:10:58.092Z,0
2023-03-06T03:11:59.052Z,0
2023-03-06T03:13:00.159Z,0
2023-03-06T03:14:00.982Z,0
2023-03-06T03:15:02.036Z,0
2023-03-06T03:16:03.263Z,0
2023-03-06T03:17:04.198Z,0
2023-03-06T03:18:05.230Z,0
2023-03-06T03:19:06.214Z,0
2023-03-06T03:20:06.994Z,0
2023-03-06T03:21:08.112Z,0
2023-03-06T03:22:09.015Z,0
2023-03-06T03:23:10.071Z,0
2023-03-06T03:24:11.057Z,0
2023-03-06T03:25:12.234Z,0
2023-03-06T03:26:13.034Z,0
2023-03-06T03:27:14.022Z,0
2023-03-06T03:28:15.038Z,0
2023-03-06T03:29:16.068Z,0
2023-03-06T03:30:17.039Z,0
2023-03-06T03:31:18.109Z,0
2023-03-06T03:32:19.072Z,0
2023-03-06T03:33:20.306Z,0
2023-03-06T03:34:21.036Z,0
2023-03-06T03:35:22.086Z,0
2023-03-06T03:36:23.142Z,0.14
2023-03-06T03:37:24.093Z,0.3
2023-03-06T03:38:25.221Z,0
2023-03-06T03:39:26.037Z,0.19
2023-03-06T03:40:27.042Z,0
2023-03-06T03:41:28.119Z,0
2023-03-06T03:42:29.021Z,0
2023-03-06T03:43:30.170Z,0
2023-03-06T03:44:31.097Z,0
2023-03-06T03:45:32.057Z,0
2023-03-06T03:46:33.124Z,0
2023-03-06T03:47:34.049Z,0
2023-03-06T03:48:35.160Z,0.1
2023-03-06T03:49:36.115Z,0
2023-03-06T03:50:37.216Z,0
2023-03-06T03:51:38.217Z,0
2023-03-06T03:52:39.051Z,0
2023-03-06T03:53:40.257Z,0.19
2023-03-06T03:54:41.176Z,0
2023-03-06T03:55:42.195Z,0
2023-03-06T03:56:43.154Z,0
2023-03-06T03:57:44.099Z,0
2023-03-06T03:58:45.052Z,0
2023-03-06T03:59:46.035Z,0
2023-03-06T04:00:47.144Z,0.06
2023-03-06T04:01:48.167Z,0
2023-03-06T04:02:49.124Z,0
2023-03-06T04:03:50.134Z,0
2023-03-06T04:04:51.119Z,0.68
2023-03-06T04:05:52.113Z,0.16
2023-03-06T04:06:53.040Z,0
2023-03-06T04:07:54.141Z,0.12
2023-03-06T04:08:55.190Z,0
2023-03-06T04:09:56.038Z,0
2023-03-06T04:10:57.164Z,0.1
2023-03-06T04:11:58.096Z,0
2023-03-06T04:12:59.114Z,0
2023-03-06T04:14:00.183Z,0.11
2023-03-06T04:15:01.052Z,0
2023-03-06T04:16:02.069Z,0
2023-03-06T04:17:03.041Z,0
2023-03-06T04:18:04.013Z,0
2023-03-06T04:19:05.073Z,0.15
2023-03-06T04:20:06.097Z,0
2023-03-06T04:21:07.077Z,0.1
2023-03-06T04:22:08.093Z,0.21
2023-03-06T04:23:09.102Z,0.14
2023-03-06T04:24:10.093Z,0
2023-03-06T04:25:11.014Z,0
2023-03-06T04:26:12.433Z,0
2023-03-06T04:27:14.113Z,0
2023-03-06T04:28:15.073Z,0.2
2023-03-06T04:29:16.119Z,0
2023-03-06T04:30:17.038Z,0
2023-03-06T04:31:18.153Z,0
2023-03-06T04:32:21.290Z,0
2023-03-06T04:33:20.131Z,0.34
2023-03-06T04:34:21.167Z,0
2023-03-06T04:35:22.084Z,0
2023-03-06T04:36:23.090Z,0
2023-03-06T04:37:24.104Z,0
2023-03-06T04:38:25.152Z,0.24
2023-03-06T04:39:26.097Z,0
2023-03-06T04:40:27.137Z,0.07
2023-03-06T04:41:28.124Z,0.04
2023-03-06T04:42:29.140Z,0
2023-03-06T04:43:30.052Z,0.35
2023-03-06T04:44:31.129Z,0
2023-03-06T04:45:32.178Z,0.09
2023-03-06T04:46:33.159Z,0
2023-03-06T04:47:34.164Z,0.12
2023-03-06T04:48:35.103Z,0.05
2023-03-06T04:49:36.197Z,0
2023-03-06T04:50:37.257Z,0
2023-03-06T04:51:38.205Z,0
2023-03-06T04:52:39.236Z,0.14
2023-03-06T04:53:40.346Z,0.18
2023-03-06T04:54:41.099Z,0
2023-03-06T04:55:42.119Z,0.05
2023-03-06T04:56:43.259Z,0.07
2023-03-06T04:57:44.090Z,0.12
2023-03-06T04:58:45.137Z,0
2023-03-06T04:59:46.186Z,0
2023-03-06T05:00:47.215Z,0.08
2023-03-06T05:01:48.190Z,0
2023-03-06T05:02:49.084Z,0
2023-03-06T05:03:50.235Z,0
2023-03-06T05:04:51.301Z,0
2023-03-06T05:05:52.154Z,0
2023-03-06T05:06:53.135Z,0.1
2023-03-06T05:07:54.133Z,0.09
2023-03-06T05:08:55.114Z,0
2023-03-06T05:09:56.117Z,0.08
2023-03-06T05:10:57.115Z,0
2023-03-06T05:11:58.055Z,0
2023-03-06T05:12:59.150Z,0
2023-03-06T05:14:00.147Z,0
2023-03-06T05:15:01.193Z,0.16
2023-03-06T05:16:02.036Z,0
2023-03-06T05:17:03.115Z,0
2023-03-06T05:18:04.092Z,0
2023-03-06T05:19:05.112Z,0
2023-03-06T05:20:06.201Z,0
2023-03-06T05:21:07.204Z,0
2023-03-06T05:22:08.256Z,0
2023-03-06T05:23:09.255Z,0
2023-03-06T05:24:10.279Z,0
2023-03-06T05:25:11.103Z,0
2023-03-06T05:26:12.510Z,0
2023-03-06T05:27:16.804Z,0
2023-03-06T05:28:15.063Z,0
2023-03-06T05:29:16.032Z,0
2023-03-06T05:30:17.160Z,0
2023-03-06T05:31:18.143Z,0
2023-03-06T05:32:19.066Z,0
2023-03-06T05:33:20.155Z,0
2023-03-06T05:34:21.260Z,0
2023-03-06T05:35:22.271Z,0
2023-03-06T05:36:23.199Z,0
2023-03-06T05:37:24.228Z,0
2023-03-06T05:38:25.255Z,0
2023-03-06T05:39:26.153Z,0
2023-03-06T05:40:27.298Z,0
2023-03-06T05:41:28.258Z,0
2023-03-06T05:42:29.104Z,0
2023-03-06T05:43:30.135Z,0
2023-03-06T05:44:31.295Z,0
2023-03-06T05:45:32.308Z,0
2023-03-06T05:46:33.197Z,0.07
2023-03-06T05:47:34.198Z,0
2023-03-06T05:48:35.208Z,0
2023-03-06T05:49:36.190Z,0
2023-03-06T05:50:37.316Z,0
2023-03-06T05:51:38.216Z,0
2023-03-06T05:52:39.236Z,0.04
2023-03-06T05:53:40.300Z,0
2023-03-06T05:54:41.199Z,0
2023-03-06T05:55:42.296Z,0.08
2023-03-06T05:56:43.218Z,0
2023-03-06T05:57:44.127Z,0
2023-03-06T05:58:45.280Z,0
2023-03-06T05:59:46.549Z,0
2023-03-06T06:00:47.336Z,0.18
2023-03-06T06:01:48.128Z,0.5
2023-03-06T06:02:49.125Z,0
2023-03-06T06:03:50.211Z,0.51
2023-03-06T06:04:51.102Z,0
2023-03-06T06:05:52.185Z,0.2
2023-03-06T06:06:53.296Z,0
2023-03-06T06:07:54.254Z,0.07
2023-03-06T06:08:55.256Z,0.05
2023-03-06T06:09:56.133Z,0.05
2023-03-06T06:10:57.139Z,0
2023-03-06T06:11:58.239Z,0
2023-03-06T06:12:59.232Z,0.15
2023-03-06T06:14:00.205Z,0.08
2023-03-06T06:15:01.188Z,0
2023-03-06T06:16:02.225Z,0
2023-03-06T06:17:03.054Z,0
2023-03-06T06:18:04.135Z,0.14
2023-03-06T06:19:05.102Z,0
2023-03-06T06:20:06.129Z,0.18
2023-03-06T06:21:07.154Z,0.1
2023-03-06T06:22:08.292Z,0.11
2023-03-06T06:23:09.169Z,0.05
2023-03-06T06:24:10.232Z,0.13
2023-03-06T06:25:11.072Z,0.12
2023-03-06T06:26:12.654Z,0.15
2023-03-06T06:27:14.112Z,0.07
2023-03-06T06:28:15.099Z,0.1
2023-03-06T06:29:16.173Z,0.08
2023-03-06T06:30:17.233Z,0.14
2023-03-06T06:31:25.349Z,0.09
2023-03-06T06:32:26.264Z,0
2023-03-06T06:33:27.160Z,0
2023-03-06T06:34:28.283Z,0.23
2023-03-06T06:35:29.305Z,0.22
2023-03-06T06:36:30.188Z,0.27
2023-03-06T06:37:31.141Z,0.17
2023-03-06T06:38:32.253Z,0
2023-03-06T06:39:33.189Z,0.11
2023-03-06T06:40:34.137Z,0
2023-03-06T06:41:53.383Z,0.07
2023-03-06T06:42:39.761Z,0.04
2023-03-06T06:43:37.213Z,0.15
2023-03-06T06:44:38.138Z,0
2023-03-06T06:45:39.325Z,0.25
2023-03-06T06:47:20.611Z,0.27
2023-03-06T06:47:41.110Z,0.11
2023-03-06T06:48:42.262Z,0
2023-03-06T06:49:43.185Z,0
2023-03-06T06:50:44.138Z,0.13
2023-03-06T06:51:45.209Z,0.48
2023-03-06T06:52:46.172Z,0.32
2023-03-06T06:53:47.155Z,0.13
2023-03-06T06:54:48.283Z,0.28
2023-03-06T06:55:49.178Z,0.08
2023-03-06T06:56:50.085Z,0.2
2023-03-06T06:57:53.854Z,0.16
2023-03-06T06:59:01.308Z,0.39
2023-03-06T06:59:56.251Z,0.21
2023-03-06T07:00:57.176Z,0.05
2023-03-06T07:01:58.232Z,0.36
2023-03-06T07:02:59.133Z,0
2023-03-06T07:04:00.278Z,0.45
2023-03-06T07:05:04.461Z,0.39
2023-03-06T07:06:02.093Z,0.2
2023-03-06T07:07:03.154Z,0.08
2023-03-06T07:08:04.133Z,0.12
2023-03-06T07:09:05.094Z,0.18
2023-03-06T07:10:06.113Z,0.37
2023-03-06T07:11:07.135Z,0.13
2023-03-06T07:12:08.133Z,0.14
2023-03-06T07:13:09.179Z,0.52
2023-03-06T07:14:10.156Z,0.55
2023-03-06T07:15:11.152Z,0.47
2023-03-06T07:16:12.789Z,0.09
2023-03-06T07:17:14.323Z,1.48
2023-03-06T07:18:15.114Z,0.55
2023-03-06T07:19:16.131Z,0.18
2023-03-06T07:20:17.215Z,0.2
2023-03-06T07:21:18.056Z,0.13
2023-03-06T07:22:19.164Z,0.09
2023-03-06T07:23:20.374Z,0.16
2023-03-06T07:24:21.175Z,0.38
2023-03-06T07:25:22.284Z,0.36
2023-03-06T07:26:23.278Z,0.3
2023-03-06T07:27:24.183Z,0.17
2023-03-06T07:28:25.194Z,0.31
2023-03-06T07:29:26.156Z,0
2023-03-06T07:30:27.113Z,0.08
2023-03-06T07:31:28.085Z,0.1
2023-03-06T07:32:29.191Z,0.41
2023-03-06T07:33:30.216Z,0.13
2023-03-06T07:34:31.153Z,0.1
2023-03-06T07:35:32.304Z,0.14
2023-03-06T07:36:33.134Z,0.63
2023-03-06T07:37:34.121Z,0.28
2023-03-06T07:38:35.216Z,0.28
2023-03-06T07:39:36.217Z,0.28
2023-03-06T07:40:37.118Z,0.39
2023-03-06T07:41:38.229Z,0.42
2023-03-06T07:42:39.117Z,0
2023-03-06T07:43:40.218Z,0.14
2023-03-06T07:44:41.146Z,0.32
2023-03-06T07:45:42.158Z,0.27
2023-03-06T07:46:43.192Z,0.14
2023-03-06T07:47:44.261Z,0.12
2023-03-06T07:48:45.348Z,0
2023-03-06T07:49:46.198Z,0.24
2023-03-06T07:50:47.160Z,0
2023-03-06T07:51:48.198Z,0.06
2023-03-06T07:52:49.240Z,0.16
2023-03-06T07:53:50.325Z,0.23
2023-03-06T07:54:51.179Z,0
2023-03-06T07:55:52.179Z,0
2023-03-06T07:56:53.220Z,0.23
2023-03-06T07:57:54.214Z,0.31
2023-03-06T07:58:56.132Z,0.13
2023-03-06T07:59:56.235Z,0.13
2023-03-06T08:00:57.186Z,0
2023-03-06T08:01:58.332Z,0.43
2023-03-06T08:02:59.202Z,0.37
2023-03-06T08:04:00.317Z,0.25
2023-03-06T08:05:01.234Z,0.48
2023-03-06T08:06:02.189Z,0.4
2023-03-06T08:07:03.164Z,0.6
2023-03-06T08:08:04.125Z,0.33
2023-03-06T08:09:05.164Z,0.53
2023-03-06T08:10:06.241Z,0.94
2023-03-06T08:11:07.173Z,0.42
2023-03-06T08:12:08.244Z,0.89
2023-03-06T08:13:09.151Z,0.32
2023-03-06T08:14:10.132Z,0.28
2023-03-06T08:15:11.125Z,0.72
2023-03-06T08:16:12.211Z,0.88
2023-03-06T08:17:13.218Z,0.47
2023-03-06T08:18:14.207Z,0.67
2023-03-06T08:19:15.101Z,0.42
2023-03-06T08:20:16.239Z,1.2
2023-03-06T08:21:17.190Z,0.56
2023-03-06T08:22:18.215Z,0.36
2023-03-06T08:23:19.196Z,0.48
2023-03-06T08:24:20.243Z,0.33
2023-03-06T08:25:21.241Z,0.26
2023-03-06T08:26:22.222Z,0.22
2023-03-06T08:27:23.197Z,0.43
2023-03-06T08:28:24.223Z,0.69
2023-03-06T08:29:25.215Z,0.63
2023-03-06T08:30:26.157Z,0.39
2023-03-06T08:31:27.308Z,0.24
2023-03-06T08:32:28.228Z,0.27
2023-03-06T08:33:29.372Z,0.33
2023-03-06T08:34:30.207Z,0.31
2023-03-06T08:35:31.227Z,0.43
2023-03-06T08:36:32.240Z,0.53
2023-03-06T08:37:33.252Z,0.25
2023-03-06T08:38:34.198Z,0.36
2023-03-06T08:39:35.159Z,0.58
2023-03-06T08:40:36.161Z,0.29
2023-03-06T08:41:37.234Z,0.5
2023-03-06T08:42:38.297Z,0.98
2023-03-06T08:43:39.207Z,0.77
2023-03-06T08:44:40.424Z,0.67
2023-03-06T08:45:41.285Z,0.83
2023-03-06T08:46:42.202Z,0.79
2023-03-06T08:47:43.292Z,0.5
2023-03-06T08:48:44.172Z,0.57
2023-03-06T08:49:45.135Z,0.28
2023-03-06T08:50:46.215Z,0.42
2023-03-06T08:51:47.241Z,0.89
2023-03-06T08:52:48.254Z,0.7
2023-03-06T08:53:49.165Z,0
2023-03-06T08:54:50.203Z,0.33
2023-03-06T08:55:51.308Z,0.51
2023-03-06T08:56:52.170Z,0.86
2023-03-06T08:57:53.313Z,0.53
2023-03-06T08:58:54.185Z,0.29
2023-03-06T08:59:55.354Z,0.35
2023-03-06T09:00:56.379Z,0.72
2023-03-06T09:01:57.297Z,0.88
2023-03-06T09:02:58.214Z,1.16
2023-03-06T09:03:59.221Z,0.33
2023-03-06T09:05:00.272Z,0.2
2023-03-06T09:06:01.256Z,0.14
2023-03-06T09:07:02.155Z,0.2
2023-03-06T09:08:03.232Z,0.29
2023-03-06T09:09:04.236Z,0.49
2023-03-06T09:10:05.183Z,0.13
2023-03-06T09:11:06.184Z,0.69
2023-03-06T09:12:07.186Z,0.65
2023-03-06T09:13:08.253Z,0.83
2023-03-06T09:14:09.155Z,0.66
2023-03-06T09:15:10.141Z,0.51
2023-03-06T09:16:11.426Z,0.61
2023-03-06T09:17:12.243Z,0.44
2023-03-06T09:18:13.173Z,1.31
2023-03-06T09:19:14.280Z,1.79
2023-03-06T09:20:15.337Z,1.69
2023-03-06T09:21:16.255Z,1.4
2023-03-06T09:22:17.335Z,1.3
2023-03-06T09:23:18.234Z,0.54
2023-03-06T09:24:19.217Z,0.71
2023-03-06T09:25:20.168Z,0.89
2023-03-06T09:26:21.377Z,1.44
2023-03-06T09:27:22.237Z,1.37
2023-03-06T09:28:23.217Z,1.4
2023-03-06T09:29:24.310Z,0.64
2023-03-06T09:30:25.191Z,0.34
2023-03-06T09:31:26.297Z,1.64
2023-03-06T09:32:27.260Z,0.96
2023-03-06T09:33:28.260Z,1.14
2023-03-06T09:34:29.242Z,1.52
2023-03-06T09:35:30.292Z,1.42
2023-03-06T09:36:31.421Z,1.27
2023-03-06T09:37:32.118Z,1.13
2023-03-06T09:38:33.232Z,1.17
2023-03-06T09:39:34.286Z,0.82
2023-03-06T09:40:35.158Z,0.81
2023-03-06T09:41:36.161Z,0.46
2023-03-06T09:42:37.259Z,0.79
2023-03-06T09:43:38.271Z,1.36
2023-03-06T09:44:39.221Z,0.81
2023-03-06T09:45:40.372Z,1
2023-03-06T09:46:41.231Z,0.51
2023-03-06T09:47:42.384Z,0.28
2023-03-06T09:48:43.226Z,0.4
2023-03-06T09:49:44.212Z,0.46
2023-03-06T09:50:45.214Z,0.56
2023-03-06T09:51:46.227Z,0.82
2023-03-06T09:52:47.223Z,0.33
2023-03-06T09:53:48.176Z,0.54
2023-03-06T09:54:49.314Z,0.34
2023-03-06T09:55:50.118Z,0.57
2023-03-06T09:56:51.282Z,0.64
2023-03-06T09:57:52.345Z,1.47
2023-03-06T09:58:53.163Z,0.57
2023-03-06T09:59:54.273Z,0.22
2023-03-06T10:00:55.197Z,0.23
2023-03-06T10:01:56.412Z,1.04
2023-03-06T10:02:57.568Z,0.72
2023-03-06T10:03:58.299Z,0.47
2023-03-06T10:04:59.364Z,0.34
2023-03-06T10:06:02.470Z,0.41
2023-03-06T10:07:01.294Z,0.28
2023-03-06T10:08:02.217Z,0.31
2023-03-06T10:09:03.191Z,0.94
2023-03-06T10:10:04.254Z,0.75
2023-03-06T10:11:05.193Z,0.7
2023-03-06T10:12:06.252Z,0.84
2023-03-06T10:13:07.208Z,0.59
2023-03-06T10:14:08.158Z,1.08
2023-03-06T10:15:09.258Z,0.86
2023-03-06T10:16:10.374Z,0.64
2023-03-06T10:17:11.214Z,0.91
2023-03-06T10:18:12.209Z,0.32
2023-03-06T10:19:13.261Z,0.3
2023-03-06T10:20:14.241Z,0.77
2023-03-06T10:21:19.187Z,0.95
2023-03-06T10:22:16.338Z,0.7
2023-03-06T10:23:17.236Z,1.02
2023-03-06T10:24:18.234Z,0.98
2023-03-06T10:25:19.236Z,1.49
2023-03-06T10:26:20.570Z,1.16
2023-03-06T10:27:21.217Z,1.18
2023-03-06T10:28:22.367Z,2.17
2023-03-06T10:29:23.321Z,0.88
2023-03-06T10:30:24.174Z,0.68
2023-03-06T10:31:25.333Z,0.49
2023-03-06T10:32:27.006Z,0.77
2023-03-06T10:33:27.418Z,0.39
2023-03-06T10:34:28.318Z,1.44
2023-03-06T10:35:30.741Z,0.56
2023-03-06T10:36:30.330Z,0.33
2023-03-06T10:37:32.544Z,0.55
2023-03-06T10:38:32.276Z,0.27
2023-03-06T10:39:33.135Z,0.38
2023-03-06T10:40:34.207Z,0.88
2023-03-06T10:41:35.190Z,0.29
2023-03-06T10:42:36.285Z,1.2
2023-03-06T10:43:37.264Z,1.73
2023-03-06T10:44:38.321Z,1.05
2023-03-06T10:45:48.805Z,0.99
2023-03-06T10:46:40.294Z,0.94
2023-03-06T10:47:41.195Z,0.72
2023-03-06T10:48:42.564Z,0.76
2023-03-06T10:49:43.204Z,1.32
2023-03-06T10:50:44.262Z,1.18
2023-03-06T10:51:45.223Z,0.97
2023-03-06T10:52:46.333Z,1
2023-03-06T10:53:47.297Z,1.17
2023-03-06T10:54:48.286Z,0.94
2023-03-06T10:55:49.277Z,0.44
2023-03-06T10:56:50.346Z,0.59
2023-03-06T10:57:51.262Z,0.78
2023-03-06T10:58:52.237Z,0.81
2023-03-06T10:59:53.225Z,0.3
2023-03-06T11:00:54.349Z,0.72
2023-03-06T11:01:55.337Z,0.38
2023-03-06T11:02:56.269Z,0.64
2023-03-06T11:03:57.296Z,0.44
2023-03-06T11:04:58.218Z,0.8
2023-03-06T11:05:59.307Z,1.06
2023-03-06T11:07:00.460Z,0.87
2023-03-06T11:08:01.238Z,0.74
2023-03-06T11:09:02.216Z,0.73
2023-03-06T11:10:03.205Z,0.5
2023-03-06T11:11:04.239Z,0.38
2023-03-06T11:12:05.256Z,0.51
2023-03-06T11:13:06.365Z,1.09
2023-03-06T11:14:07.216Z,0.3
2023-03-06T11:15:08.301Z,0.6
2023-03-06T11:16:09.245Z,0.15
2023-03-06T11:17:10.315Z,0.33
2023-03-06T11:18:11.286Z,0.12
2023-03-06T11:19:12.227Z,0.3
2023-03-06T11:20:13.296Z,1.02
2023-03-06T11:21:14.265Z,0.72
2023-03-06T11:22:15.260Z,0.58
2023-03-06T11:23:16.164Z,0.26
2023-03-06T11:24:17.225Z,0.85
2023-03-06T11:25:18.377Z,0.35
2023-03-06T11:26:19.178Z,0.28
2023-03-06T11:27:20.355Z,0.11
2023-03-06T11:28:21.286Z,0.35
2023-03-06T11:29:22.337Z,0.57
2023-03-06T11:30:23.314Z,0.08
2023-03-06T11:31:24.354Z,0.46
2023-03-06T11:32:25.521Z,0.1
2023-03-06T11:33:26.299Z,0.34
2023-03-06T11:34:27.301Z,0.63
2023-03-06T11:35:28.265Z,1.03
2023-03-06T11:36:29.298Z,0.58
2023-03-06T11:37:30.232Z,0.83
2023-03-06T11:38:31.295Z,0.51
2023-03-06T11:39:32.232Z,0.71
2023-03-06T11:40:33.360Z,0.93
2023-03-06T11:41:34.258Z,0.3
2023-03-06T11:42:35.434Z,0.14
2023-03-06T11:43:36.311Z,0.73
2023-03-06T11:44:37.261Z,1.05
2023-03-06T11:45:38.331Z,0.76
2023-03-06T11:46:39.277Z,0.25
2023-03-06T11:47:40.371Z,0.28
2023-03-06T11:48:41.352Z,0.18
2023-03-06T11:49:42.352Z,0.48
2023-03-06T11:50:43.474Z,0.52
2023-03-06T11:51:44.298Z,0.91
2023-03-06T11:52:45.231Z,0.64
2023-03-06T11:53:49.294Z,0.65
2023-03-06T11:54:50.332Z,0.45
2023-03-06T11:55:51.256Z,0.64
2023-03-06T11:56:52.294Z,0.38
2023-03-06T11:57:53.455Z,0.59
2023-03-06T11:58:54.254Z,0.57
2023-03-06T11:59:55.283Z,0.62
2023-03-06T12:00:56.294Z,1.15
2023-03-06T12:01:57.286Z,1.02
2023-03-06T12:02:58.335Z,0.54
2023-03-06T12:03:59.277Z,0.67
2023-03-06T12:05:00.545Z,1.12
2023-03-06T12:06:01.355Z,0.85
2023-03-06T12:07:02.384Z,1.11
2023-03-06T12:08:03.227Z,1.28
2023-03-06T12:09:04.436Z,0.81
2023-03-06T12:11:06.230Z,0.15
2023-03-06T12:12:07.374Z,0.63
2023-03-06T12:13:08.279Z,0.61
2023-03-06T12:14:09.222Z,0.33
2023-03-06T12:15:10.207Z,0.82
2023-03-06T12:16:11.220Z,0.46
2023-03-06T12:17:12.281Z,0.89
2023-03-06T12:18:13.297Z,0.8
2023-03-06T12:19:14.263Z,0.87
2023-03-06T12:20:15.407Z,0.85
2023-03-06T12:21:16.191Z,0.62
2023-03-06T12:22:17.320Z,0.55
2023-03-06T12:23:18.257Z,0.6
2023-03-06T12:24:19.218Z,1.23
2023-03-06T12:25:20.337Z,0.75
2023-03-06T12:26:21.299Z,0.91
2023-03-06T12:27:22.237Z,0.86
2023-03-06T12:28:23.376Z,1.06
2023-03-06T12:29:24.297Z,0.45
2023-03-06T12:30:25.304Z,0.32
2023-03-06T12:31:26.435Z,0.38
2023-03-06T12:32:27.445Z,0.44
2023-03-06T12:33:28.350Z,0.35
2023-03-06T12:34:29.335Z,0.22
2023-03-06T12:35:30.314Z,0.49
2023-03-06T12:36:31.374Z,0.86
2023-03-06T12:37:32.327Z,0.71
2023-03-06T12:38:33.255Z,0.62
2023-03-06T12:39:34.339Z,0.21
2023-03-06T12:40:35.405Z,0.25
2023-03-06T12:41:36.378Z,0.35
2023-03-06T12:42:37.355Z,0
2023-03-06T12:43:40.006Z,0.13
2023-03-06T12:44:39.263Z,0.11
2023-03-06T12:45:40.416Z,0.18
2023-03-06T12:46:41.353Z,0.26
2023-03-06T12:47:42.243Z,0.2
2023-03-06T12:48:43.344Z,0.16
2023-03-06T12:49:45.199Z,0.22
2023-03-06T12:50:45.377Z,0.58
2023-03-06T12:51:46.352Z,0.66
2023-03-06T12:52:47.351Z,0.41
2023-03-06T12:53:48.364Z,0.26
2023-03-06T12:54:49.317Z,0
2023-03-06T12:55:50.278Z,0
2023-03-06T12:56:51.398Z,0.16
2023-03-06T12:57:52.317Z,0.27
2023-03-06T12:58:53.496Z,0.1
2023-03-06T12:59:54.409Z,0.24
2023-03-06T13:00:58.660Z,0
2023-03-06T13:01:56.324Z,0
2023-03-06T13:02:57.358Z,0.21
2023-03-06T13:03:58.514Z,0
2023-03-06T13:04:59.463Z,0
2023-03-06T13:06:00.463Z,0
2023-03-06T13:07:01.403Z,0.37
2023-03-06T13:08:02.439Z,0.29
2023-03-06T13:09:03.393Z,0
2023-03-06T13:10:04.414Z,0.15
2023-03-06T13:11:05.373Z,0.06
2023-03-06T13:12:06.383Z,0.08
2023-03-06T13:13:07.338Z,0.2
2023-03-06T13:14:08.456Z,0.6
2023-03-06T13:15:09.443Z,0.19
2023-03-06T13:16:10.361Z,0.31
2023-03-06T13:17:11.365Z,0.16
2023-03-06T13:18:12.243Z,0.37
2023-03-06T13:19:13.404Z,0.39
2023-03-06T13:20:14.461Z,0.07
2023-03-06T13:21:15.427Z,0.14
2023-03-06T13:22:16.275Z,0.74
2023-03-06T13:23:17.361Z,0.45
2023-03-06T13:24:18.313Z,0.37
2023-03-06T13:25:19.320Z,0.51
2023-03-06T13:26:20.384Z,0.24
2023-03-06T13:27:21.360Z,0.33
2023-03-06T13:28:22.431Z,0.39
2023-03-06T13:29:23.340Z,0.49
2023-03-06T13:30:24.449Z,0.24
2023-03-06T13:31:27.638Z,0.54
2023-03-06T13:32:26.470Z,0.45
2023-03-06T13:33:27.306Z,0.51
2023-03-06T13:34:28.312Z,0
2023-03-06T13:35:29.324Z,0
2023-03-06T13:36:30.299Z,0
2023-03-06T13:37:31.518Z,0.17
2023-03-06T13:38:32.665Z,0.08
2023-03-06T13:39:34.360Z,0.07
2023-03-06T13:40:35.453Z,0.39
2023-03-06T13:41:36.322Z,0.16
2023-03-06T13:42:37.310Z,0.13
2023-03-06T13:43:38.331Z,0.37
2023-03-06T13:44:39.350Z,0.06
2023-03-06T13:45:40.442Z,0.52
2023-03-06T13:46:41.357Z,0.16
2023-03-06T13:48:06.712Z,0.09
2023-03-06T13:48:45.441Z,0.06
2023-03-06T13:49:44.402Z,0.13
2023-03-06T13:50:45.385Z,0
2023-03-06T13:51:46.261Z,0
2023-03-06T13:52:47.276Z,0
2023-03-06T13:53:48.393Z,0
2023-03-06T13:54:49.289Z,0
2023-03-06T13:55:50.398Z,0
2023-03-06T13:56:51.290Z,0
2023-03-06T13:57:52.339Z,0
2023-03-06T13:58:53.381Z,0
2023-03-06T14:00:02.987Z,0
2023-03-06T14:00:55.277Z,0
2023-03-06T14:01:56.281Z,0
2023-03-06T14:02:57.398Z,0
2023-03-06T14:03:58.414Z,0
2023-03-06T14:04:59.356Z,0
2023-03-06T14:06:00.464Z,0
2023-03-06T14:07:01.440Z,0
2023-03-06T14:08:02.395Z,0
2023-03-06T14:09:03.603Z,0
2023-03-06T14:10:04.293Z,0
2023-03-06T14:11:05.293Z,0
2023-03-06T14:12:06.301Z,0
2023-03-06T14:13:07.297Z,0
2023-03-06T14:14:08.335Z,0
2023-03-06T14:15:09.308Z,0